Terminal Aerodrome Forecast
Issued by NWS Cleveland, OH

Home | Current Version | Previous Version | Graphics & Text | Print | Product List | Glossary Off
Versions: 1 2 3 4 5 6 7 8 9 10 11 12 13 14 15 16 17 18 19

000
FTUS41 KCLE 050600 AAA
TAFERI
TAF AMD
KERI 050652Z 0507/0606 33012G20KT P6SM BKN020 OVC050
     FM050930 34008KT P6SM OVC120
     FM051500 34008KT P6SM BKN250
     FM060000 26004KT P6SM SKC=

USA.gov is the U.S. government's official web portal to all federal, state and local government web resources and services.